createdAt,value
2022-08-11T00:02:00.768Z,3.53
2022-08-11T00:04:36.068Z,3.80
2022-08-11T00:07:06.184Z,4.70
2022-08-11T00:09:39.271Z,5.13
2022-08-11T00:12:17.159Z,4.40
2022-08-11T00:14:45.021Z,3.73
2022-08-11T00:17:14.958Z,4.13
2022-08-11T00:20:12.136Z,4.00
2022-08-11T00:22:39.233Z,4.20
2022-08-11T00:25:20.270Z,3.67
2022-08-11T00:27:48.564Z,3.83
2022-08-11T00:30:16.560Z,4.03
2022-08-11T00:32:55.507Z,4.30
2022-08-11T00:35:52.055Z,4.00
2022-08-11T00:38:17.351Z,3.60
2022-08-11T00:41:16.097Z,4.10
2022-08-11T00:44:19.726Z,4.33
2022-08-11T00:47:11.459Z,4.03
2022-08-11T00:49:53.397Z,3.40
2022-08-11T00:52:48.158Z,4.60
2022-08-11T00:55:47.314Z,4.70
2022-08-11T00:58:44.995Z,4.77
2022-08-11T01:01:17.910Z,4.57
2022-08-11T01:04:56.054Z,4.80
2022-08-11T01:08:01.524Z,4.37
2022-08-11T01:10:54.657Z,4.70
2022-08-11T01:13:53.325Z,4.17
2022-08-11T01:16:56.913Z,3.37
2022-08-11T01:20:45.169Z,3.30
2022-08-11T01:23:41.900Z,3.23
2022-08-11T01:26:56.120Z,3.37
2022-08-11T01:30:33.029Z,4.20
2022-08-11T01:33:28.022Z,4.00
2022-08-11T01:36:37.874Z,3.80
2022-08-11T01:39:32.645Z,3.90
2022-08-11T01:42:45.940Z,3.63
2022-08-11T01:45:57.180Z,4.13
2022-08-11T01:48:42.517Z,3.90
2022-08-11T01:51:33.981Z,4.07
2022-08-11T01:54:27.658Z,3.70
2022-08-11T01:57:09.873Z,3.67
2022-08-11T01:59:50.432Z,3.67
2022-08-11T02:02:53.872Z,4.33
2022-08-11T02:05:43.634Z,4.27
2022-08-11T02:08:50.722Z,4.47
2022-08-11T02:11:30.965Z,4.57
2022-08-11T02:15:05.294Z,4.10
2022-08-11T02:18:13.402Z,4.27
2022-08-11T02:21:17.726Z,4.83
2022-08-11T02:24:05.836Z,4.30
2022-08-11T02:26:44.484Z,3.90
2022-08-11T02:30:18.659Z,4.20
2022-08-11T02:33:27.427Z,4.23
2022-08-11T02:35:57.662Z,4.27
2022-08-11T02:39:10.025Z,4.07
2022-08-11T02:42:42.471Z,4.20
2022-08-11T02:45:37.767Z,4.10
2022-08-11T02:48:52.191Z,4.40
2022-08-11T02:52:05.389Z,4.10
2022-08-11T02:54:44.512Z,3.87
2022-08-11T02:57:31.065Z,4.20
2022-08-11T03:00:14.286Z,3.80
2022-08-11T03:03:21.474Z,4.47
2022-08-11T03:06:44.992Z,4.37
2022-08-11T03:09:25.079Z,4.33
2022-08-11T03:12:36.661Z,4.77
2022-08-11T03:15:46.317Z,4.63
2022-08-11T03:18:26.855Z,4.87
2022-08-11T03:22:01.695Z,4.50
2022-08-11T03:24:46.379Z,5.10
2022-08-11T03:27:53.797Z,4.73
2022-08-11T03:31:19.246Z,4.70
2022-08-11T03:34:07.895Z,4.40
2022-08-11T03:37:38.187Z,4.50
2022-08-11T03:40:46.928Z,5.33
2022-08-11T03:43:58.115Z,4.90
2022-08-11T03:47:07.883Z,4.60
2022-08-11T03:50:08.936Z,4.40
2022-08-11T03:53:13.941Z,4.50
2022-08-11T03:56:11.549Z,4.57
2022-08-11T03:59:22.319Z,5.10
2022-08-11T04:02:31.296Z,4.40
2022-08-11T04:06:07.309Z,4.70
2022-08-11T04:09:02.058Z,4.93
2022-08-11T04:11:46.861Z,4.80
2022-08-11T04:15:01.479Z,5.60
2022-08-11T04:17:57.674Z,5.30
2022-08-11T04:21:05.097Z,4.90
2022-08-11T04:24:33.378Z,5.20
2022-08-11T04:27:22.507Z,5.03
2022-08-11T04:30:17.949Z,4.83
2022-08-11T04:33:35.194Z,5.30
2022-08-11T04:36:09.550Z,4.67
2022-08-11T04:39:19.993Z,4.93
2022-08-11T04:42:36.920Z,5.40
2022-08-11T04:45:24.165Z,5.00
2022-08-11T04:48:52.472Z,5.13
2022-08-11T04:52:37.600Z,5.43
2022-08-11T04:56:04.270Z,5.43
2022-08-11T04:59:26.837Z,5.20
2022-08-11T05:02:41.274Z,5.30
2022-08-11T05:05:56.362Z,5.27
2022-08-11T05:08:29.563Z,5.40
2022-08-11T05:11:34.803Z,5.30
2022-08-11T05:14:48.072Z,5.17
2022-08-11T05:18:19.773Z,5.30
2022-08-11T05:21:14.755Z,4.60
2022-08-11T05:24:07.479Z,5.40
2022-08-11T05:27:12.898Z,5.03
2022-08-11T05:30:07.099Z,4.60
2022-08-11T05:33:02.197Z,5.40
2022-08-11T05:36:00.108Z,5.10
2022-08-11T05:38:54.699Z,5.80
2022-08-11T05:41:45.505Z,4.70
2022-08-11T05:44:39.250Z,5.00
2022-08-11T05:47:25.813Z,4.63
2022-08-11T05:50:13.723Z,4.70
2022-08-11T05:53:05.155Z,4.50
2022-08-11T05:56:02.876Z,4.17
2022-08-11T05:58:44.432Z,4.57
2022-08-11T06:01:21.468Z,5.87
2022-08-11T06:04:11.563Z,4.40
2022-08-11T06:06:47.078Z,5.27
2022-08-11T06:09:14.833Z,5.30
2022-08-11T06:11:44.987Z,5.07
2022-08-11T06:14:15.286Z,4.53
2022-08-11T06:16:43.558Z,5.00
2022-08-11T06:19:11.064Z,5.20
2022-08-11T06:21:38.471Z,4.60
2022-08-11T06:24:13.053Z,4.50
2022-08-11T06:27:11.135Z,4.07
2022-08-11T06:29:47.904Z,4.13
2022-08-11T06:32:16.677Z,4.70
2022-08-11T06:35:12.650Z,4.53
2022-08-11T06:38:03.956Z,4.70
2022-08-11T06:41:22.005Z,4.47
2022-08-11T06:44:05.964Z,4.43
2022-08-11T06:46:41.419Z,4.60
2022-08-11T06:49:40.929Z,5.03
2022-08-11T06:52:35.099Z,4.73
2022-08-11T06:55:56.596Z,4.77
2022-08-11T06:58:23.016Z,4.40
2022-08-11T07:00:55.079Z,4.60
2022-08-11T07:03:23.420Z,4.70
2022-08-11T07:06:04.073Z,4.40
2022-08-11T07:09:25.572Z,4.63
2022-08-11T07:12:25.878Z,4.20
2022-08-11T07:15:14.273Z,5.17
2022-08-11T07:18:12.324Z,4.33
2022-08-11T07:21:02.141Z,4.90
2022-08-11T07:23:53.182Z,3.93
2022-08-11T07:26:43.108Z,4.13
2022-08-11T07:29:14.683Z,4.07
2022-08-11T07:31:46.667Z,4.70
2022-08-11T07:34:27.864Z,4.20
2022-08-11T07:36:57.622Z,4.80
2022-08-11T07:39:32.276Z,4.40
2022-08-11T07:42:06.555Z,4.47
2022-08-11T07:44:55.499Z,5.10
2022-08-11T07:47:42.493Z,4.70
2022-08-11T07:50:29.071Z,4.60
2022-08-11T07:53:03.343Z,4.33
2022-08-11T07:55:51.099Z,4.10
2022-08-11T07:58:45.638Z,4.37
2022-08-11T08:01:46.041Z,4.13
2022-08-11T08:04:34.955Z,4.70
2022-08-11T08:07:23.077Z,4.20
2022-08-11T08:10:09.605Z,3.67
2022-08-11T08:13:00.588Z,3.70
2022-08-11T08:15:46.985Z,3.47
2022-08-11T08:18:26.675Z,3.27
2022-08-11T08:21:11.796Z,3.43
2022-08-11T08:23:42.345Z,3.60
2022-08-11T08:26:31.926Z,3.60
2022-08-11T08:29:21.739Z,3.53
2022-08-11T08:31:49.708Z,3.90
2022-08-11T08:34:17.901Z,3.30
2022-08-11T08:36:51.007Z,3.70
2022-08-11T08:39:22.805Z,1.83
2022-08-11T08:41:54.646Z,2.97
2022-08-11T08:44:41.179Z,3.30
2022-08-11T08:47:15.124Z,3.50
2022-08-11T08:50:21.314Z,2.80
2022-08-11T08:53:05.707Z,2.60
2022-08-11T08:55:33.679Z,4.93
2022-08-11T08:58:02.231Z,3.47
2022-08-11T09:00:51.788Z,3.83
2022-08-11T09:06:07.674Z,3.10
2022-08-11T09:08:35.296Z,3.20
2022-08-11T09:11:24.737Z,3.20
2022-08-11T09:14:05.139Z,2.50
2022-08-11T09:16:36.272Z,2.60
2022-08-11T09:19:03.983Z,2.63
2022-08-11T09:21:39.333Z,2.60
2022-08-11T09:24:34.555Z,2.00
2022-08-11T09:27:07.150Z,1.57
2022-08-11T09:29:35.099Z,2.30
2022-08-11T09:32:02.692Z,2.37
2022-08-11T09:34:30.000Z,2.33
2022-08-11T09:37:28.380Z,2.83
2022-08-11T09:40:27.309Z,1.40
2022-08-11T09:43:17.646Z,3.20
2022-08-11T09:45:51.326Z,2.00
2022-08-11T09:48:24.416Z,2.70
2022-08-11T09:50:55.189Z,3.20
2022-08-11T09:53:36.167Z,2.90
2022-08-11T09:56:28.200Z,0.83
2022-08-11T09:58:55.384Z,2.30
2022-08-11T10:01:27.417Z,3.57
2022-08-11T10:04:31.144Z,2.87
2022-08-11T10:07:10.543Z,3.10
2022-08-11T10:09:51.060Z,1.80
2022-08-11T10:12:25.804Z,2.40
2022-08-11T10:15:38.267Z,2.43
2022-08-11T10:18:30.580Z,2.40
2022-08-11T10:21:10.426Z,2.57
2022-08-11T10:26:56.742Z,2.63
2022-08-11T10:29:50.067Z,3.37
2022-08-11T10:32:58.471Z,2.00
2022-08-11T10:35:32.621Z,2.50
2022-08-11T10:38:08.492Z,2.20
2022-08-11T10:40:40.512Z,1.13
2022-08-11T10:43:53.339Z,2.80
2022-08-11T10:46:28.556Z,2.27
2022-08-11T10:48:59.107Z,2.30
2022-08-11T10:51:51.240Z,2.80
2022-08-11T10:54:39.272Z,2.70
2022-08-11T10:57:24.942Z,2.73
2022-08-11T10:59:56.512Z,2.33
2022-08-11T11:02:24.109Z,6.93
2022-08-11T11:05:29.731Z,4.83
2022-08-11T11:08:32.593Z,3.07
2022-08-11T11:11:01.455Z,2.43
2022-08-11T11:13:53.307Z,2.70
2022-08-11T11:16:43.287Z,2.73
2022-08-11T11:19:12.177Z,2.53
2022-08-11T11:21:42.301Z,3.40
2022-08-11T11:24:39.932Z,3.00
2022-08-11T11:27:57.216Z,2.70
2022-08-11T11:30:35.876Z,2.80
2022-08-11T11:33:15.261Z,2.40
2022-08-11T11:35:56.922Z,3.27
2022-08-11T11:38:23.971Z,1.80
2022-08-11T11:41:11.259Z,3.10
2022-08-11T11:43:38.742Z,3.30
2022-08-11T11:46:07.792Z,2.60
2022-08-11T11:48:37.403Z,2.90
2022-08-11T11:51:04.936Z,3.30
2022-08-11T11:53:32.034Z,3.10
2022-08-11T11:56:00.393Z,2.80
2022-08-11T11:58:46.712Z,2.80
2022-08-11T12:01:18.916Z,4.30
2022-08-11T12:03:53.049Z,2.03
2022-08-11T12:06:23.421Z,2.60
2022-08-11T12:08:54.008Z,3.27
2022-08-11T12:11:43.709Z,3.37
2022-08-11T12:14:12.345Z,2.93
2022-08-11T12:16:45.129Z,2.93
2022-08-11T12:19:21.442Z,2.07
2022-08-11T12:22:07.598Z,3.43
2022-08-11T12:24:54.901Z,2.80
2022-08-11T12:27:24.203Z,3.10
2022-08-11T12:29:57.332Z,2.97
2022-08-11T12:32:31.465Z,2.83
2022-08-11T12:34:58.702Z,3.20
2022-08-11T12:37:43.630Z,3.50
2022-08-11T12:40:56.547Z,2.83
2022-08-11T12:43:57.028Z,3.20
2022-08-11T12:46:31.782Z,3.10
2022-08-11T12:49:31.229Z,3.30
2022-08-11T12:52:12.816Z,2.73
2022-08-11T12:55:12.969Z,3.13
2022-08-11T12:58:04.455Z,2.93
2022-08-11T13:00:51.141Z,3.47
2022-08-11T13:03:39.401Z,3.87
2022-08-11T13:06:07.782Z,3.80
2022-08-11T13:08:38.189Z,3.03
2022-08-11T13:11:24.324Z,2.60
2022-08-11T13:13:57.800Z,3.17
2022-08-11T13:16:52.931Z,3.50
2022-08-11T13:19:21.633Z,3.03
2022-08-11T13:21:50.132Z,3.60
2022-08-11T13:24:19.024Z,3.40
2022-08-11T13:26:50.005Z,3.27
2022-08-11T13:29:21.180Z,1.80
2022-08-11T13:31:49.249Z,3.90
2022-08-11T13:34:18.528Z,3.97
2022-08-11T13:36:52.879Z,3.80
2022-08-11T13:39:30.279Z,2.57
2022-08-11T13:42:01.060Z,2.20
2022-08-11T13:44:36.036Z,2.27
2022-08-11T13:47:06.796Z,3.60
2022-08-11T13:49:40.296Z,2.27
2022-08-11T13:52:14.939Z,3.27
2022-08-11T13:54:43.673Z,3.90
2022-08-11T13:58:07.684Z,3.10
2022-08-11T14:00:13.400Z,2.40
2022-08-11T14:02:54.142Z,3.27
2022-08-11T14:05:28.635Z,3.27
2022-08-11T14:08:37.016Z,3.47
2022-08-11T14:12:21.846Z,3.00
2022-08-11T14:14:11.307Z,3.13
2022-08-11T14:16:43.134Z,3.33
2022-08-11T14:19:14.836Z,3.20
2022-08-11T14:22:07.022Z,3.30
2022-08-11T14:24:45.236Z,3.20
2022-08-11T14:27:39.130Z,3.30
2022-08-11T14:30:01.624Z,3.20
2022-08-11T14:32:28.628Z,2.13
2022-08-11T14:34:55.950Z,3.20
2022-08-11T14:37:25.789Z,2.63
2022-08-11T14:40:21.348Z,2.97
2022-08-11T14:43:07.129Z,2.90
2022-08-11T14:45:58.290Z,1.70
2022-08-11T14:48:27.282Z,1.67
2022-08-11T14:50:54.420Z,2.57
2022-08-11T14:53:23.460Z,3.10
2022-08-11T14:56:09.859Z,3.10
2022-08-11T14:58:37.377Z,2.17
2022-08-11T15:01:28.176Z,3.30
2022-08-11T15:04:34.473Z,2.70
2022-08-11T15:06:43.576Z,3.00
2022-08-11T15:09:10.555Z,2.93
2022-08-11T15:12:32.641Z,2.60
2022-08-11T15:15:20.421Z,2.67
2022-08-11T15:17:49.414Z,2.30
2022-08-11T15:20:38.580Z,1.13
2022-08-11T15:23:24.716Z,2.50
2022-08-11T15:25:58.863Z,2.40
2022-08-11T15:28:48.641Z,2.00
2022-08-11T15:31:29.014Z,2.77
2022-08-11T15:34:21.773Z,2.60
2022-08-11T15:37:09.048Z,1.90
2022-08-11T15:40:08.108Z,2.40
2022-08-11T15:43:29.162Z,2.80
2022-08-11T15:46:02.181Z,3.20
2022-08-11T15:48:46.232Z,2.93
2022-08-11T15:51:25.221Z,3.00
2022-08-11T15:53:58.890Z,2.43
2022-08-11T15:56:32.050Z,3.00
2022-08-11T15:59:41.217Z,3.23
2022-08-11T16:02:33.001Z,2.07
2022-08-11T16:05:06.023Z,2.77
2022-08-11T16:07:38.419Z,2.30
2022-08-11T16:10:21.557Z,3.07
2022-08-11T16:13:06.266Z,2.90
2022-08-11T16:16:04.210Z,3.60
2022-08-11T16:18:41.229Z,2.03
2022-08-11T16:21:26.101Z,2.30
2022-08-11T16:24:05.233Z,3.00
2022-08-11T16:27:10.192Z,3.00
2022-08-11T16:29:23.172Z,2.63
2022-08-11T16:32:12.203Z,2.37
2022-08-11T16:34:59.286Z,2.60
2022-08-11T16:37:45.979Z,2.93
2022-08-11T16:40:13.527Z,2.70
2022-08-11T16:43:10.379Z,2.90
2022-08-11T16:45:59.954Z,2.60
2022-08-11T16:48:36.325Z,2.97
2022-08-11T16:51:07.570Z,2.70
2022-08-11T16:53:54.927Z,2.20
2022-08-11T16:56:44.510Z,2.97
2022-08-11T16:59:32.471Z,2.63
2022-08-11T17:02:41.513Z,2.90
2022-08-11T17:05:34.455Z,2.70
2022-08-11T17:08:27.257Z,2.70
2022-08-11T17:11:21.979Z,2.93
2022-08-11T17:14:07.952Z,2.70
2022-08-11T17:16:38.926Z,2.53
2022-08-11T17:19:14.432Z,1.60
2022-08-11T17:22:04.366Z,3.13
2022-08-11T17:24:44.319Z,2.83
2022-08-11T17:27:16.446Z,2.70
2022-08-11T17:30:04.099Z,2.20
2022-08-11T17:33:00.797Z,3.40
2022-08-11T17:35:38.927Z,2.70
2022-08-11T17:38:09.306Z,2.40
2022-08-11T17:40:39.935Z,2.83
2022-08-11T17:43:27.811Z,2.73
2022-08-11T17:46:15.742Z,2.70
2022-08-11T17:48:47.643Z,2.80
2022-08-11T17:51:38.718Z,2.30
2022-08-11T17:54:26.410Z,3.00
2022-08-11T17:57:20.268Z,2.70
2022-08-11T17:59:52.876Z,2.80
2022-08-11T18:03:00.649Z,2.60
2022-08-11T18:05:31.484Z,2.67
2022-08-11T18:08:19.534Z,2.63
2022-08-11T18:11:06.319Z,2.57
2022-08-11T18:13:56.117Z,2.50
2022-08-11T18:16:42.558Z,2.40
2022-08-11T18:19:30.709Z,2.30
2022-08-11T18:22:28.188Z,2.77
2022-08-11T18:25:20.769Z,2.37
2022-08-11T18:28:12.076Z,2.53
2022-08-11T18:31:03.810Z,2.83
2022-08-11T18:34:08.154Z,3.00
2022-08-11T18:37:08.579Z,2.40
2022-08-11T18:40:12.793Z,2.77
2022-08-11T18:43:00.901Z,2.73
2022-08-11T18:45:46.618Z,2.93
2022-08-11T18:48:41.498Z,2.83
2022-08-11T18:51:30.642Z,2.60
2022-08-11T18:54:27.541Z,2.40
2022-08-11T18:57:18.829Z,2.80
2022-08-11T19:00:06.021Z,2.30
2022-08-11T19:02:55.986Z,2.60
2022-08-11T19:06:36.108Z,2.40
2022-08-11T19:08:58.897Z,2.80
2022-08-11T19:11:46.219Z,2.77
2022-08-11T19:14:33.280Z,2.77
2022-08-11T19:17:43.285Z,2.67
2022-08-11T19:20:33.913Z,2.50
2022-08-11T19:23:22.241Z,2.73
2022-08-11T19:26:08.280Z,2.50
2022-08-11T19:28:55.784Z,2.60
2022-08-11T19:31:44.801Z,2.77
2022-08-11T19:34:38.570Z,2.73
2022-08-11T19:37:26.162Z,2.50
2022-08-11T19:40:17.434Z,2.77
2022-08-11T19:43:04.518Z,2.80
2022-08-11T19:46:05.609Z,4.03
2022-08-11T19:48:51.383Z,3.10
2022-08-11T19:51:38.784Z,2.60
2022-08-11T19:54:25.293Z,2.80
2022-08-11T19:57:15.097Z,2.53
2022-08-11T20:00:01.263Z,2.50
2022-08-11T20:02:47.646Z,2.70
2022-08-11T20:05:33.400Z,2.40
2022-08-11T20:08:19.217Z,3.27
2022-08-11T20:11:06.445Z,2.57
2022-08-11T20:13:53.303Z,2.40
2022-08-11T20:16:40.765Z,2.70
2022-08-11T20:19:55.301Z,2.30
2022-08-11T20:22:35.087Z,3.00
2022-08-11T20:25:23.438Z,2.60
2022-08-11T20:28:12.242Z,2.57
2022-08-11T20:30:59.439Z,2.43
2022-08-11T20:33:45.032Z,2.77
2022-08-11T20:36:31.893Z,2.30
2022-08-11T20:39:19.651Z,2.40
2022-08-11T20:42:07.393Z,2.60
2022-08-11T20:44:55.660Z,2.60
2022-08-11T20:47:59.639Z,2.73
2022-08-11T20:50:47.053Z,3.03
2022-08-11T20:53:39.076Z,2.43
2022-08-11T20:56:28.571Z,2.73
2022-08-11T20:59:21.643Z,2.70
2022-08-11T21:02:09.879Z,2.70
2022-08-11T21:05:00.356Z,2.83
2022-08-11T21:07:57.255Z,2.87
2022-08-11T21:10:50.555Z,2.73
2022-08-11T21:13:42.526Z,2.77
2022-08-11T21:16:37.173Z,2.80
2022-08-11T21:20:00.764Z,3.30
2022-08-11T21:23:05.297Z,3.73
2022-08-11T21:26:02.138Z,3.70
2022-08-11T21:28:49.789Z,4.07
2022-08-11T21:31:36.967Z,4.10
2022-08-11T21:34:24.904Z,3.70
2022-08-11T21:37:11.602Z,3.20
2022-08-11T21:39:58.582Z,3.30
2022-08-11T21:42:45.054Z,3.30
2022-08-11T21:45:32.901Z,3.17
2022-08-11T21:48:19.438Z,3.27
2022-08-11T21:51:05.007Z,3.00
2022-08-11T21:53:51.841Z,3.80
2022-08-11T21:56:38.317Z,3.67
2022-08-11T21:59:27.144Z,3.77
2022-08-11T22:02:13.231Z,3.20
2022-08-11T22:05:00.336Z,3.30
2022-08-11T22:07:47.113Z,3.73
2022-08-11T22:10:41.493Z,3.83
2022-08-11T22:13:31.554Z,3.77
2022-08-11T22:16:18.798Z,3.53
2022-08-11T22:19:08.597Z,5.63
2022-08-11T22:22:01.835Z,7.33
2022-08-11T22:24:51.651Z,7.23
2022-08-11T22:27:38.095Z,6.90
2022-08-11T22:30:29.406Z,4.20
2022-08-11T22:33:21.772Z,4.10
2022-08-11T22:36:13.562Z,4.00
2022-08-11T22:39:01.047Z,3.83
2022-08-11T22:41:47.294Z,4.60
2022-08-11T22:44:32.737Z,4.90
2022-08-11T22:47:20.143Z,6.10
2022-08-11T22:50:11.619Z,6.90
2022-08-11T22:52:57.391Z,6.47
2022-08-11T22:55:44.713Z,5.37
2022-08-11T22:58:31.065Z,6.07
2022-08-11T23:01:18.113Z,5.47
2022-08-11T23:04:05.865Z,5.73
2022-08-11T23:06:53.667Z,5.30
2022-08-11T23:09:42.150Z,5.40
2022-08-11T23:12:28.587Z,4.40
2022-08-11T23:15:14.540Z,3.70
2022-08-11T23:18:00.537Z,3.70
2022-08-11T23:20:50.557Z,3.70
2022-08-11T23:23:39.246Z,3.43
2022-08-11T23:26:25.988Z,2.90
2022-08-11T23:29:14.089Z,3.30
2022-08-11T23:32:00.527Z,2.87
2022-08-11T23:35:04.668Z,3.30
2022-08-11T23:37:59.789Z,3.53
2022-08-11T23:40:45.507Z,3.07
2022-08-11T23:43:42.894Z,3.00
2022-08-11T23:46:28.982Z,3.20
2022-08-11T23:49:24.244Z,3.43
2022-08-11T23:52:11.433Z,2.70
2022-08-11T23:54:58.057Z,3.20
2022-08-11T23:57:48.954Z,3.43
